sensor_id;sensor_type;location;lat;lon;timestamp;pressure;altitude;pressure_sealevel;temperature;humidity
60319;BME280;46163;52.306;5.634;2023-04-09T00:01:13;102522.81;;;15.59;52.77
60319;BME280;46163;52.306;5.634;2023-04-09T00:03:39;102519.94;;;15.61;52.91
60319;BME280;46163;52.306;5.634;2023-04-09T00:06:04;102518.47;;;15.58;52.89
60319;BME280;46163;52.306;5.634;2023-04-09T00:08:30;102513.91;;;15.59;53.00
60319;BME280;46163;52.306;5.634;2023-04-09T00:10:57;102516.59;;;15.59;53.14
60319;BME280;46163;52.306;5.634;2023-04-09T00:13:22;102511.63;;;15.55;52.84
60319;BME280;46163;52.306;5.634;2023-04-09T00:15:48;102519.50;;;15.57;52.86
60319;BME280;46163;52.306;5.634;2023-04-09T00:18:15;102509.78;;;15.56;52.97
60319;BME280;46163;52.306;5.634;2023-04-09T00:20:42;102518.66;;;15.57;52.96
60319;BME280;46163;52.306;5.634;2023-04-09T00:23:08;102520.50;;;15.56;52.85
60319;BME280;46163;52.306;5.634;2023-04-09T00:25:33;102517.84;;;15.56;52.86
60319;BME280;46163;52.306;5.634;2023-04-09T00:27:59;102516.19;;;15.55;52.94
60319;BME280;46163;52.306;5.634;2023-04-09T00:30:27;102511.81;;;15.54;52.83
60319;BME280;46163;52.306;5.634;2023-04-09T00:32:54;102510.97;;;15.53;52.93
60319;BME280;46163;52.306;5.634;2023-04-09T00:35:19;102510.16;;;15.53;52.95
60319;BME280;46163;52.306;5.634;2023-04-09T00:37:45;102499.81;;;15.50;52.85
60319;BME280;46163;52.306;5.634;2023-04-09T00:40:10;102505.81;;;15.52;52.88
60319;BME280;46163;52.306;5.634;2023-04-09T00:42:36;102499.59;;;15.51;53.01
60319;BME280;46163;52.306;5.634;2023-04-09T00:45:03;102502.28;;;15.51;52.81
60319;BME280;46163;52.306;5.634;2023-04-09T00:47:29;102498.97;;;15.49;52.77
60319;BME280;46163;52.306;5.634;2023-04-09T00:49:56;102496.28;;;15.49;52.85
60319;BME280;46163;52.306;5.634;2023-04-09T00:52:22;102480.75;;;15.45;53.08
60319;BME280;46163;52.306;5.634;2023-04-09T00:54:49;102489.63;;;15.45;53.02
60319;BME280;46163;52.306;5.634;2023-04-09T00:57:15;102494.66;;;15.48;52.86
60319;BME280;46163;52.306;5.634;2023-04-09T00:59:42;102494.84;;;15.47;52.89
60319;BME280;46163;52.306;5.634;2023-04-09T01:02:07;102492.16;;;15.47;53.08
60319;BME280;46163;52.306;5.634;2023-04-09T01:04:33;102492.16;;;15.47;53.01
60319;BME280;46163;52.306;5.634;2023-04-09T01:07:55;102492.16;;;15.47;53.10
60319;BME280;46163;52.306;5.634;2023-04-09T01:13:06;102489.47;;;15.47;52.91
60319;BME280;46163;52.306;5.634;2023-04-09T01:15:35;102483.44;;;15.45;52.96
60319;BME280;46163;52.306;5.634;2023-04-09T01:18:10;102485.50;;;15.43;52.83
60319;BME280;46163;52.306;5.634;2023-04-09T01:20:48;102487.16;;;15.44;52.89
60319;BME280;46163;52.306;5.634;2023-04-09T01:26:02;102489.22;;;15.42;52.95
60319;BME280;46163;52.306;5.634;2023-04-09T01:28:48;102496.22;;;15.43;52.89
60319;BME280;46163;52.306;5.634;2023-04-09T01:31:22;102483.56;;;15.37;52.88
60319;BME280;46163;52.306;5.634;2023-04-09T01:33:50;102483.22;;;15.40;53.02
60319;BME280;46163;52.306;5.634;2023-04-09T01:36:17;102481.34;;;15.40;52.97
60319;BME280;46163;52.306;5.634;2023-04-09T01:38:43;102478.41;;;15.35;52.87
60319;BME280;46163;52.306;5.634;2023-04-09T01:41:14;102483.22;;;15.40;52.96
60319;BME280;46163;52.306;5.634;2023-04-09T01:43:45;102479.25;;;15.36;52.94
60319;BME280;46163;52.306;5.634;2023-04-09T01:46:11;102479.03;;;15.37;52.86
60319;BME280;46163;52.306;5.634;2023-04-09T01:48:37;102468.69;;;15.34;53.00
60319;BME280;46163;52.306;5.634;2023-04-09T01:51:03;102472.84;;;15.37;52.97
60319;BME280;46163;52.306;5.634;2023-04-09T01:53:29;102466.66;;;15.36;52.97
60319;BME280;46163;52.306;5.634;2023-04-09T01:55:57;102468.69;;;15.34;53.10
60319;BME280;46163;52.306;5.634;2023-04-09T01:58:24;102466.66;;;15.36;52.88
60319;BME280;46163;52.306;5.634;2023-04-09T02:00:51;102466.84;;;15.35;52.92
60319;BME280;46163;52.306;5.634;2023-04-09T02:03:53;102459.81;;;15.34;52.98
60319;BME280;46163;52.306;5.634;2023-04-09T02:06:34;102466.84;;;15.35;52.97
60319;BME280;46163;52.306;5.634;2023-04-09T02:09:06;102462.72;;;15.32;52.99
60319;BME280;46163;52.306;5.634;2023-04-09T02:11:33;102454.84;;;15.31;53.02
60319;BME280;46163;52.306;5.634;2023-04-09T02:14:06;102460.84;;;15.33;52.92
60319;BME280;46163;52.306;5.634;2023-04-09T02:16:33;102459.19;;;15.32;52.90
60319;BME280;46163;52.306;5.634;2023-04-09T02:19:00;102461.06;;;15.31;53.00
60319;BME280;46163;52.306;5.634;2023-04-09T02:21:27;102464.75;;;15.30;53.13
60319;BME280;46163;52.306;5.634;2023-04-09T02:23:54;102461.25;;;15.30;53.13
60319;BME280;46163;52.306;5.634;2023-04-09T02:26:23;102453.19;;;15.30;53.00
60319;BME280;46163;52.306;5.634;2023-04-09T02:28:49;102452.94;;;15.24;53.03
60319;BME280;46163;52.306;5.634;2023-04-09T02:31:15;102450.69;;;15.28;53.02
60319;BME280;46163;52.306;5.634;2023-04-09T02:33:40;102452.53;;;15.27;52.92
60319;BME280;46163;52.306;5.634;2023-04-09T02:36:10;102451.72;;;15.27;53.02
60319;BME280;46163;52.306;5.634;2023-04-09T02:38:36;102442.41;;;15.23;52.94
60319;BME280;46163;52.306;5.634;2023-04-09T02:41:01;102444.06;;;15.24;53.03
60319;BME280;46163;52.306;5.634;2023-04-09T02:43:27;102441.19;;;15.25;52.93
60319;BME280;46163;52.306;5.634;2023-04-09T02:45:52;102445.72;;;15.25;52.85
60319;BME280;46163;52.306;5.634;2023-04-09T02:48:18;102435.81;;;15.25;52.97
60319;BME280;46163;52.306;5.634;2023-04-09T02:50:43;102436.84;;;15.24;52.91
60319;BME280;46163;52.306;5.634;2023-04-09T02:53:08;102434.34;;;15.23;52.93
60319;BME280;46163;52.306;5.634;2023-04-09T02:55:34;102428.38;;;15.21;53.05
60319;BME280;46163;52.306;5.634;2023-04-09T02:57:59;102427.16;;;15.23;53.00
60319;BME280;46163;52.306;5.634;2023-04-09T03:00:25;102429.00;;;15.23;53.10
60319;BME280;46163;52.306;5.634;2023-04-09T03:02:50;102429.00;;;15.23;52.98
60319;BME280;46163;52.306;5.634;2023-04-09T03:05:16;102425.50;;;15.22;53.00
60319;BME280;46163;52.306;5.634;2023-04-09T03:07:41;102424.66;;;15.22;52.96
60319;BME280;46163;52.306;5.634;2023-04-09T03:10:07;102428.53;;;15.19;53.15
60319;BME280;46163;52.306;5.634;2023-04-09T03:12:32;102424.84;;;15.20;52.97
60319;BME280;46163;52.306;5.634;2023-04-09T03:14:58;102425.84;;;15.19;53.03
60319;BME280;46163;52.306;5.634;2023-04-09T03:17:23;102431.22;;;15.19;53.06
60319;BME280;46163;52.306;5.634;2023-04-09T03:19:52;102428.53;;;15.19;53.19
60319;BME280;46163;52.306;5.634;2023-04-09T03:22:18;102432.25;;;15.18;53.13
60319;BME280;46163;52.306;5.634;2023-04-09T03:24:43;102434.91;;;15.18;53.12
60319;BME280;46163;52.306;5.634;2023-04-09T03:27:09;102433.28;;;15.17;53.03
60319;BME280;46163;52.306;5.634;2023-04-09T03:29:34;102430.59;;;15.17;53.11
60319;BME280;46163;52.306;5.634;2023-04-09T03:32:00;102424.59;;;15.15;52.97
60319;BME280;46163;52.306;5.634;2023-04-09T03:34:25;102425.41;;;15.16;53.17
60319;BME280;46163;52.306;5.634;2023-04-09T03:36:50;102423.56;;;15.16;52.89
60319;BME280;46163;52.306;5.634;2023-04-09T03:39:16;102421.91;;;15.15;52.99
60319;BME280;46163;52.306;5.634;2023-04-09T03:41:41;102413.88;;;15.15;53.11
60319;BME280;46163;52.306;5.634;2023-04-09T03:44:07;102415.09;;;15.13;53.01
60319;BME280;46163;52.306;5.634;2023-04-09T03:46:32;102421.09;;;15.15;52.97
60319;BME280;46163;52.306;5.634;2023-04-09T03:48:58;102422.94;;;15.14;53.09
60319;BME280;46163;52.306;5.634;2023-04-09T03:51:23;102420.25;;;15.14;52.82
60319;BME280;46163;52.306;5.634;2023-04-09T03:53:49;102422.94;;;15.14;52.98
60319;BME280;46163;52.306;5.634;2023-04-09T03:56:14;102408.91;;;15.12;53.08
60319;BME280;46163;52.306;5.634;2023-04-09T03:58:40;102418.59;;;15.13;52.85
60319;BME280;46163;52.306;5.634;2023-04-09T04:01:07;102413.44;;;15.12;53.08
60319;BME280;46163;52.306;5.634;2023-04-09T04:03:33;102414.25;;;15.12;53.11
60319;BME280;46163;52.306;5.634;2023-04-09T04:06:01;102417.94;;;15.11;52.90
60319;BME280;46163;52.306;5.634;2023-04-09T04:08:27;102397.63;;;15.02;53.05
60319;BME280;46163;52.306;5.634;2023-04-09T04:10:53;102414.44;;;15.11;53.06
60319;BME280;46163;52.306;5.634;2023-04-09T04:13:18;102393.50;;;14.99;53.15
60319;BME280;46163;52.306;5.634;2023-04-09T04:15:43;102407.59;;;15.08;53.11
60319;BME280;46163;52.306;5.634;2023-04-09T04:18:09;102417.09;;;15.11;53.21
60319;BME280;46163;52.306;5.634;2023-04-09T04:20:35;102412.97;;;15.08;53.09
60319;BME280;46163;52.306;5.634;2023-04-09T04:23:01;102412.13;;;15.08;52.95
60319;BME280;46163;52.306;5.634;2023-04-09T04:25:27;102410.28;;;15.08;52.89
60319;BME280;46163;52.306;5.634;2023-04-09T04:27:53;102410.69;;;15.05;53.17
60319;BME280;46163;52.306;5.634;2023-04-09T04:30:19;102406.78;;;15.08;53.01
60319;BME280;46163;52.306;5.634;2023-04-09T04:32:46;102404.28;;;15.06;53.04
60319;BME280;46163;52.306;5.634;2023-04-09T04:35:11;102409.66;;;15.06;52.99
60319;BME280;46163;52.306;5.634;2023-04-09T04:37:37;102396.81;;;15.02;52.96
60319;BME280;46163;52.306;5.634;2023-04-09T04:40:03;102409.84;;;15.05;53.03
60319;BME280;46163;52.306;5.634;2023-04-09T04:42:29;102411.72;;;15.04;53.09
60319;BME280;46163;52.306;5.634;2023-04-09T04:44:55;102410.88;;;15.04;53.10
60319;BME280;46163;52.306;5.634;2023-04-09T04:47:20;102415.41;;;15.03;53.07
60319;BME280;46163;52.306;5.634;2023-04-09T04:49:46;102413.56;;;15.04;52.95
60319;BME280;46163;52.306;5.634;2023-04-09T04:52:11;102408.38;;;15.02;52.99
60319;BME280;46163;52.306;5.634;2023-04-09T04:54:37;102408.75;;;14.99;52.89
60319;BME280;46163;52.306;5.634;2023-04-09T04:57:02;102405.69;;;15.02;53.05
60319;BME280;46163;52.306;5.634;2023-04-09T04:59:28;102409.19;;;15.03;53.21
60319;BME280;46163;52.306;5.634;2023-04-09T05:01:53;102405.06;;;15.00;53.11
60319;BME280;46163;52.306;5.634;2023-04-09T05:04:19;102412.06;;;15.01;53.07
60319;BME280;46163;52.306;5.634;2023-04-09T05:06:44;102410.41;;;15.00;53.18
60319;BME280;46163;52.306;5.634;2023-04-09T05:09:10;102397.41;;;14.97;53.01
60319;BME280;46163;52.306;5.634;2023-04-09T05:11:36;102401.53;;;14.99;53.06
60319;BME280;46163;52.306;5.634;2023-04-09T05:14:01;102399.88;;;14.98;52.97
60319;BME280;46163;52.306;5.634;2023-04-09T05:16:27;102403.41;;;14.99;53.26
60319;BME280;46163;52.306;5.634;2023-04-09T05:18:53;102399.88;;;14.98;52.91
60319;BME280;46163;52.306;5.634;2023-04-09T05:21:18;102402.56;;;14.98;52.96
60319;BME280;46163;52.306;5.634;2023-04-09T05:23:44;102397.22;;;14.98;53.25
60319;BME280;46163;52.306;5.634;2023-04-09T05:26:09;102401.75;;;14.98;53.02
60319;BME280;46163;52.306;5.634;2023-04-09T05:28:34;102399.44;;;14.95;53.06
60319;BME280;46163;52.306;5.634;2023-04-09T05:31:00;102406.47;;;14.96;53.12
60319;BME280;46163;52.306;5.634;2023-04-09T05:33:26;102404.81;;;14.95;53.00
60319;BME280;46163;52.306;5.634;2023-04-09T05:35:51;102407.50;;;14.95;53.05
60319;BME280;46163;52.306;5.634;2023-04-09T05:38:17;102402.13;;;14.95;53.11
60319;BME280;46163;52.306;5.634;2023-04-09T05:40:42;102409.16;;;14.96;53.03
60319;BME280;46163;52.306;5.634;2023-04-09T05:43:10;102406.66;;;14.94;53.15
60319;BME280;46163;52.306;5.634;2023-04-09T05:45:35;102413.84;;;14.94;53.06
60319;BME280;46163;52.306;5.634;2023-04-09T05:48:01;102412.84;;;14.95;53.02
60319;BME280;46163;52.306;5.634;2023-04-09T05:50:26;102410.34;;;14.93;52.74
60319;BME280;46163;52.306;5.634;2023-04-09T05:52:52;102413.03;;;14.93;53.04
60319;BME280;46163;52.306;5.634;2023-04-09T05:55:17;102409.50;;;14.93;53.20
60319;BME280;46163;52.306;5.634;2023-04-09T05:57:43;102413.03;;;14.93;53.01
60319;BME280;46163;52.306;5.634;2023-04-09T06:00:10;102410.53;;;14.92;53.04
60319;BME280;46163;52.306;5.634;2023-04-09T06:02:35;102412.19;;;14.93;52.88
60319;BME280;46163;52.306;5.634;2023-04-09T06:05:01;102424.56;;;14.94;52.85
60319;BME280;46163;52.306;5.634;2023-04-09T06:07:26;102420.22;;;14.93;53.17
60319;BME280;46163;52.306;5.634;2023-04-09T06:09:53;102425.59;;;14.93;52.86
60319;BME280;46163;52.306;5.634;2023-04-09T06:12:19;102420.22;;;14.93;53.10
60319;BME280;46163;52.306;5.634;2023-04-09T06:14:47;102417.56;;;14.93;53.13
60319;BME280;46163;52.306;5.634;2023-04-09T06:17:12;102414.88;;;14.93;52.83
60319;BME280;46163;52.306;5.634;2023-04-09T06:19:38;102418.59;;;14.92;52.84
60319;BME280;46163;52.306;5.634;2023-04-09T06:22:04;102411.56;;;14.91;53.07
60319;BME280;46163;52.306;5.634;2023-04-09T06:24:33;102423.75;;;14.93;52.94
60319;BME280;46163;52.306;5.634;2023-04-09T06:26:59;102419.41;;;14.92;53.01
60319;BME280;46163;52.306;5.634;2023-04-09T06:29:24;102419.41;;;14.92;53.10
60319;BME280;46163;52.306;5.634;2023-04-09T06:31:50;102421.06;;;14.93;53.07
60319;BME280;46163;52.306;5.634;2023-04-09T06:34:15;102419.22;;;14.94;52.82
60319;BME280;46163;52.306;5.634;2023-04-09T06:36:41;102416.53;;;14.94;52.86
60319;BME280;46163;52.306;5.634;2023-04-09T06:39:08;102428.94;;;14.95;52.50
60319;BME280;46163;52.306;5.634;2023-04-09T06:41:33;102425.25;;;14.96;52.88
60319;BME280;46163;52.306;5.634;2023-04-09T06:43:59;102427.91;;;14.96;52.84
60319;BME280;46163;52.306;5.634;2023-04-09T06:46:25;102431.44;;;14.96;52.67
60319;BME280;46163;52.306;5.634;2023-04-09T06:48:50;102428.56;;;14.98;52.68
60319;BME280;46163;52.306;5.634;2023-04-09T06:51:15;102435.56;;;14.99;52.60
60319;BME280;46163;52.306;5.634;2023-04-09T06:53:41;102432.88;;;14.99;52.65
60319;BME280;46163;52.306;5.634;2023-04-09T06:56:07;102424.84;;;14.99;52.41
60319;BME280;46163;52.306;5.634;2023-04-09T06:58:32;102422.34;;;14.97;52.68
60319;BME280;46163;52.306;5.634;2023-04-09T07:01:00;102435.84;;;15.04;52.61
60319;BME280;46163;52.306;5.634;2023-04-09T07:03:26;102435.84;;;15.04;52.63
60319;BME280;46163;52.306;5.634;2023-04-09T07:05:53;102438.53;;;15.04;52.56
60319;BME280;46163;52.306;5.634;2023-04-09T07:08:18;102435.84;;;15.04;52.14
60319;BME280;46163;52.306;5.634;2023-04-09T07:10:44;102417.81;;;14.98;52.64
60319;BME280;46163;52.306;5.634;2023-04-09T07:13:12;102431.09;;;15.06;52.57
60319;BME280;46163;52.306;5.634;2023-04-09T07:15:39;102433.59;;;15.08;52.47
60319;BME280;46163;52.306;5.634;2023-04-09T07:18:05;102432.38;;;15.10;52.28
60319;BME280;46163;52.306;5.634;2023-04-09T07:20:33;102431.19;;;15.13;52.22
60319;BME280;46163;52.306;5.634;2023-04-09T07:23:01;102427.47;;;15.14;52.33
60319;BME280;46163;52.306;5.634;2023-04-09T07:25:28;102436.34;;;15.14;52.19
60319;BME280;46163;52.306;5.634;2023-04-09T07:27:54;102433.66;;;15.14;52.00
60319;BME280;46163;52.306;5.634;2023-04-09T07:30:20;102436.53;;;15.13;52.43
60319;BME280;46163;52.306;5.634;2023-04-09T07:32:45;102434.28;;;15.16;52.16
60319;BME280;46163;52.306;5.634;2023-04-09T07:35:11;102444.00;;;15.17;51.99
60319;BME280;46163;52.306;5.634;2023-04-09T07:37:37;102437.81;;;15.17;52.12
60319;BME280;46163;52.306;5.634;2023-04-09T07:40:03;102435.75;;;15.19;52.10
60319;BME280;46163;52.306;5.634;2023-04-09T07:42:29;102440.94;;;15.20;52.12
60319;BME280;46163;52.306;5.634;2023-04-09T07:44:54;102442.59;;;15.21;51.85
60319;BME280;46163;52.306;5.634;2023-04-09T07:47:21;102439.09;;;15.21;51.98
60319;BME280;46163;52.306;5.634;2023-04-09T07:49:47;102432.03;;;15.20;51.66
60319;BME280;46163;52.306;5.634;2023-04-09T07:52:13;102438.25;;;15.20;51.73
60319;BME280;46163;52.306;5.634;2023-04-09T07:54:39;102440.34;;;15.25;51.76
60319;BME280;46163;52.306;5.634;2023-04-09T07:57:04;102437.47;;;15.26;51.83
60319;BME280;46163;52.306;5.634;2023-04-09T07:59:31;102437.09;;;15.30;51.75
60319;BME280;46163;52.306;5.634;2023-04-09T08:01:56;102436.72;;;15.33;51.63
60319;BME280;46163;52.306;5.634;2023-04-09T08:04:22;102438.38;;;15.34;51.58
60319;BME280;46163;52.306;5.634;2023-04-09T08:06:48;102447.03;;;15.36;51.50
60319;BME280;46163;52.306;5.634;2023-04-09T08:09:17;102441.47;;;15.37;51.44
60319;BME280;46163;52.306;5.634;2023-04-09T08:11:43;102431.63;;;15.38;51.61
60319;BME280;46163;52.306;5.634;2023-04-09T08:14:10;102432.25;;;15.40;51.56
60319;BME280;46163;52.306;5.634;2023-04-09T08:16:38;102424.81;;;15.42;51.38
60319;BME280;46163;52.306;5.634;2023-04-09T08:19:04;102425.66;;;15.42;51.36
60319;BME280;46163;52.306;5.634;2023-04-09T08:21:30;102426.47;;;15.43;51.48
60319;BME280;46163;52.306;5.634;2023-04-09T08:23:56;102420.28;;;15.42;51.56
60319;BME280;46163;52.306;5.634;2023-04-09T08:26:25;102425.91;;;15.47;51.23
60319;BME280;46163;52.306;5.634;2023-04-09T08:28:51;102422.41;;;15.47;51.21
60319;BME280;46163;52.306;5.634;2023-04-09T08:31:16;102422.00;;;15.50;51.08
60319;BME280;46163;52.306;5.634;2023-04-09T08:33:42;102425.50;;;15.50;51.04
60319;BME280;46163;52.306;5.634;2023-04-09T08:36:08;102432.13;;;15.54;51.15
60319;BME280;46163;52.306;5.634;2023-04-09T08:38:33;102436.31;;;15.57;51.11
60319;BME280;46163;52.306;5.634;2023-04-09T08:40:59;102427.41;;;15.57;50.98
60319;BME280;46163;52.306;5.634;2023-04-09T08:43:26;102436.94;;;15.59;51.01
60319;BME280;46163;52.306;5.634;2023-04-09T08:45:52;102426.19;;;15.59;50.91
60319;BME280;46163;52.306;5.634;2023-04-09T08:48:23;102435.72;;;15.62;51.00
60319;BME280;46163;52.306;5.634;2023-04-09T08:50:49;102430.00;;;15.65;50.97
60319;BME280;46163;52.306;5.634;2023-04-09T08:53:16;102427.09;;;15.66;50.91
60319;BME280;46163;52.306;5.634;2023-04-09T08:55:44;102421.34;;;15.69;50.74
60319;BME280;46163;52.306;5.634;2023-04-09T08:58:10;102425.47;;;15.72;50.75
60319;BME280;46163;52.306;5.634;2023-04-09T09:00:36;102428.16;;;15.72;50.73
60319;BME280;46163;52.306;5.634;2023-04-09T09:03:11;102420.56;;;15.75;50.69
60319;BME280;46163;52.306;5.634;2023-04-09T09:05:38;102420.16;;;15.78;50.87
60319;BME280;46163;52.306;5.634;2023-04-09T09:08:05;102418.94;;;15.81;50.59
60319;BME280;46163;52.306;5.634;2023-04-09T09:10:41;102416.69;;;15.85;50.59
60319;BME280;46163;52.306;5.634;2023-04-09T09:15:42;102402.03;;;15.87;50.63
60319;BME280;46163;52.306;5.634;2023-04-09T09:18:07;102401.25;;;15.93;50.45
60319;BME280;46163;52.306;5.634;2023-04-09T09:20:33;102403.53;;;15.96;50.50
60319;BME280;46163;52.306;5.634;2023-04-09T09:22:58;102399.81;;;15.97;50.43
60319;BME280;46163;52.306;5.634;2023-04-09T09:25:24;102402.13;;;16.00;50.37
60319;BME280;46163;52.306;5.634;2023-04-09T09:27:51;102408.94;;;16.03;50.29
60319;BME280;46163;52.306;5.634;2023-04-09T09:30:21;102407.72;;;16.05;50.11
60319;BME280;46163;52.306;5.634;2023-04-09T09:32:50;102403.81;;;16.08;50.08
60319;BME280;46163;52.306;5.634;2023-04-09T09:35:17;102392.69;;;16.11;50.22
60319;BME280;46163;52.306;5.634;2023-04-09T09:37:42;102385.25;;;16.13;50.04
60319;BME280;46163;52.306;5.634;2023-04-09T09:40:08;102387.53;;;16.16;50.13
60319;BME280;46163;52.306;5.634;2023-04-09T09:42:34;102387.75;;;16.21;49.92
60319;BME280;46163;52.306;5.634;2023-04-09T09:45:00;102383.66;;;16.25;49.93
60319;BME280;46163;52.306;5.634;2023-04-09T09:47:27;102383.25;;;16.28;49.74
60319;BME280;46163;52.306;5.634;2023-04-09T09:49:53;102384.69;;;16.31;49.83
60319;BME280;46163;52.306;5.634;2023-04-09T09:52:24;102379.94;;;16.33;49.74
60319;BME280;46163;52.306;5.634;2023-04-09T09:54:53;102381.63;;;16.34;49.77
60319;BME280;46163;52.306;5.634;2023-04-09T09:57:20;102377.50;;;16.38;49.79
60319;BME280;46163;52.306;5.634;2023-04-09T09:59:54;102368.41;;;16.39;49.80
60319;BME280;46163;52.306;5.634;2023-04-09T10:02:24;102374.38;;;16.41;49.73
60319;BME280;46163;52.306;5.634;2023-04-09T10:04:59;102369.22;;;16.39;49.84
60319;BME280;46163;52.306;5.634;2023-04-09T10:07:25;102368.19;;;16.40;49.44
60319;BME280;46163;52.306;5.634;2023-04-09T10:09:53;102358.09;;;16.43;49.82
60319;BME280;46163;52.306;5.634;2023-04-09T10:12:21;102357.06;;;16.44;49.66
60319;BME280;46163;52.306;5.634;2023-04-09T10:14:53;102362.63;;;16.42;49.70
60319;BME280;46163;52.306;5.634;2023-04-09T10:17:19;102352.72;;;16.43;49.65
60319;BME280;46163;52.306;5.634;2023-04-09T10:19:55;102351.25;;;16.47;49.75
60319;BME280;46163;52.306;5.634;2023-04-09T10:22:26;102349.19;;;16.49;49.56
60319;BME280;46163;52.306;5.634;2023-04-09T10:24:53;102352.72;;;16.56;49.33
60319;BME280;46163;52.306;5.634;2023-04-09T10:27:20;102352.72;;;16.56;49.40
60319;BME280;46163;52.306;5.634;2023-04-09T10:29:47;102340.34;;;16.55;49.46
60319;BME280;46163;52.306;5.634;2023-04-09T10:32:21;102339.53;;;16.61;49.43
60319;BME280;46163;52.306;5.634;2023-04-09T10:34:48;102337.03;;;16.66;49.14
60319;BME280;46163;52.306;5.634;2023-04-09T10:37:22;102334.00;;;16.69;49.22
60319;BME280;46163;52.306;5.634;2023-04-09T10:39:49;102329.63;;;16.68;49.25
60319;BME280;46163;52.306;5.634;2023-04-09T10:45:06;102334.41;;;16.73;48.94
60319;BME280;46163;52.306;5.634;2023-04-09T10:47:34;102324.47;;;16.73;49.13
60319;BME280;46163;52.306;5.634;2023-04-09T10:50:25;102317.22;;;16.74;49.03
60319;BME280;46163;52.306;5.634;2023-04-09T10:52:53;102328.59;;;16.76;49.08
60319;BME280;46163;52.306;5.634;2023-04-09T10:55:39;102323.44;;;16.74;49.11
60319;BME280;46163;52.306;5.634;2023-04-09T10:58:08;102325.91;;;16.76;48.97
60319;BME280;46163;52.306;5.634;2023-04-09T11:00:38;102323.22;;;16.82;49.14
60319;BME280;46163;52.306;5.634;2023-04-09T11:03:24;102316.00;;;16.83;49.02
60319;BME280;46163;52.306;5.634;2023-04-09T11:06:05;102312.69;;;16.81;49.14
60319;BME280;46163;52.306;5.634;2023-04-09T11:08:34;102313.09;;;16.84;49.09
60319;BME280;46163;52.306;5.634;2023-04-09T11:11:00;102304.22;;;16.90;48.98
60319;BME280;46163;52.306;5.634;2023-04-09T11:13:28;102295.72;;;16.93;48.88
60319;BME280;46163;52.306;5.634;2023-04-09T11:15:54;102298.84;;;16.97;48.85
60319;BME280;46163;52.306;5.634;2023-04-09T11:18:24;102311.66;;;17.02;49.06
60319;BME280;46163;52.306;5.634;2023-04-09T11:21:00;102292.22;;;17.06;48.80
60319;BME280;46163;52.306;5.634;2023-04-09T11:23:27;102290.75;;;17.10;48.85
60319;BME280;46163;52.306;5.634;2023-04-09T11:25:53;102293.03;;;17.13;48.59
60319;BME280;46163;52.306;5.634;2023-04-09T11:28:19;102292.38;;;17.11;48.83
60319;BME280;46163;52.306;5.634;2023-04-09T11:30:45;102291.78;;;17.16;48.63
60319;BME280;46163;52.306;5.634;2023-04-09T11:33:11;102281.25;;;17.14;48.59
60319;BME280;46163;52.306;5.634;2023-04-09T11:35:37;102277.50;;;17.22;48.40
60319;BME280;46163;52.306;5.634;2023-04-09T11:38:09;102278.72;;;17.26;48.28
60319;BME280;46163;52.306;5.634;2023-04-09T11:40:36;102282.03;;;17.28;48.52
60319;BME280;46163;52.306;5.634;2023-04-09T11:43:01;102282.22;;;17.33;48.39
60319;BME280;46163;52.306;5.634;2023-04-09T11:45:29;102276.03;;;17.33;48.45
60319;BME280;46163;52.306;5.634;2023-04-09T11:47:55;102279.94;;;17.37;48.25
60319;BME280;46163;52.306;5.634;2023-04-09T11:50:21;102277.44;;;17.42;48.38
60319;BME280;46163;52.306;5.634;2023-04-09T11:52:48;102284.06;;;17.46;47.92
60319;BME280;46163;52.306;5.634;2023-04-09T11:55:27;102279.09;;;17.49;48.19
60319;BME280;46163;52.306;5.634;2023-04-09T11:57:56;102275.56;;;17.56;47.67
60319;BME280;46163;52.306;5.634;2023-04-09T12:00:22;102278.44;;;17.61;47.94
60319;BME280;46163;52.306;5.634;2023-04-09T12:02:57;102275.50;;;17.62;48.11
60319;BME280;46163;52.306;5.634;2023-04-09T12:05:28;102281.13;;;17.61;48.31
60319;BME280;46163;52.306;5.634;2023-04-09T12:08:01;102275.13;;;17.59;48.08
60319;BME280;46163;52.306;5.634;2023-04-09T12:10:28;102274.53;;;17.57;48.09
60319;BME280;46163;52.306;5.634;2023-04-09T12:12:59;102275.56;;;17.56;48.10
60319;BME280;46163;52.306;5.634;2023-04-09T12:15:25;102268.50;;;17.55;47.96
60319;BME280;46163;52.306;5.634;2023-04-09T12:17:55;102262.50;;;17.52;48.21
60319;BME280;46163;52.306;5.634;2023-04-09T12:20:41;102260.63;;;17.53;48.17
60319;BME280;46163;52.306;5.634;2023-04-09T12:23:09;102261.66;;;17.59;48.19
60319;BME280;46163;52.306;5.634;2023-04-09T12:25:36;102262.06;;;17.62;47.99
60319;BME280;46163;52.306;5.634;2023-04-09T12:28:03;102259.78;;;17.66;48.21
60319;BME280;46163;52.306;5.634;2023-04-09T12:30:30;102264.94;;;17.67;47.98
60319;BME280;46163;52.306;5.634;2023-04-09T12:32:57;102254.59;;;17.71;47.92
60319;BME280;46163;52.306;5.634;2023-04-09T12:35:22;102255.22;;;17.73;47.89
60319;BME280;46163;52.306;5.634;2023-04-09T12:37:48;102243.81;;;17.71;47.83
60319;BME280;46163;52.306;5.634;2023-04-09T12:40:14;102247.97;;;17.73;47.68
60319;BME280;46163;52.306;5.634;2023-04-09T12:42:41;102249.63;;;17.74;47.91
60319;BME280;46163;52.306;5.634;2023-04-09T12:45:11;102245.06;;;17.75;48.10
60319;BME280;46163;52.306;5.634;2023-04-09T12:47:38;102252.94;;;17.76;47.85
60319;BME280;46163;52.306;5.634;2023-04-09T12:50:07;102252.31;;;17.81;47.99
60319;BME280;46163;52.306;5.634;2023-04-09T12:52:34;102245.66;;;17.84;47.84
60319;BME280;46163;52.306;5.634;2023-04-09T12:55:00;102245.00;;;17.88;47.60
60319;BME280;46163;52.306;5.634;2023-04-09T12:57:26;102237.53;;;17.90;47.78
60319;BME280;46163;52.306;5.634;2023-04-09T12:59:51;102237.09;;;17.93;47.59
60319;BME280;46163;52.306;5.634;2023-04-09T13:02:18;102242.06;;;17.96;47.51